Time;durP1;ratioP1;P1;durP2;ratioP2;P2;SDS_P1;SDS_P2;PMS_P1;PMS_P2;Temp;Humidity;BMP_temperature;BMP_pressure;BME280_temperature;BME280_humidity;BME280_pressure;Samples;Min_cycle;Max_cycle;Signal;HPM_P1;HPM_P2
2021/04/23 00:01:26;;;;;;;4.30;1.70;;;10.60;99.90;;;;;;5002418;28;20870;-75
2021/04/23 00:03:59;;;;;;;4.43;1.80;;;10.70;99.90;;;;;;4996281;28;20530;-72
2021/04/23 00:06:35;;;;;;;6.10;1.70;;;10.60;99.90;;;;;;5002128;28;20720;-73
2021/04/23 00:09:23;;;;;;;6.20;1.87;;;10.50;99.90;;;;;;5001459;28;20191;-72
2021/04/23 00:11:58;;;;;;;4.27;1.80;;;10.30;99.90;;;;;;5020995;28;20200;-73
2021/04/23 00:14:31;;;;;;;3.20;1.60;;;10.20;99.90;;;;;;5002578;28;20404;-74
2021/04/23 00:16:58;;;;;;;2.90;1.43;;;10.20;99.90;;;;;;5002484;28;20738;-73
2021/04/23 00:19:26;;;;;;;7.70;1.50;;;10.20;99.90;;;;;;4986775;28;20240;-72
2021/04/23 00:21:56;;;;;;;3.17;1.50;;;10.10;99.90;;;;;;5004881;28;20498;-74
2021/04/23 00:24:24;;;;;;;6.23;1.67;;;10.10;99.90;;;;;;4992239;28;20185;-75
2021/04/23 00:26:51;;;;;;;6.63;1.80;;;9.80;99.90;;;;;;5013359;28;20212;-73
2021/04/23 00:29:18;;;;;;;4.53;1.70;;;9.80;99.90;;;;;;5003371;28;20292;-73
2021/04/23 00:34:33;;;;;;;5.30;1.50;;;9.80;99.90;;;;;;5020215;28;20782;-73
2021/04/23 00:37:00;;;;;;;4.13;1.57;;;9.90;99.90;;;;;;5003845;28;20331;-73
2021/04/23 00:39:29;;;;;;;4.80;1.70;;;10.00;99.90;;;;;;5001889;28;20224;-75
2021/04/23 00:41:57;;;;;;;4.10;1.57;;;10.20;99.90;;;;;;5006674;28;20491;-74
2021/04/23 00:44:23;;;;;;;3.53;1.70;;;10.10;99.90;;;;;;5008174;28;20192;-74
2021/04/23 00:46:50;;;;;;;6.37;1.80;;;9.90;99.90;;;;;;4998098;28;20193;-73
2021/04/23 00:49:16;;;;;;;6.97;1.47;;;9.90;99.90;;;;;;5000624;28;20228;-72
2021/04/23 00:51:53;;;;;;;4.70;1.47;;;9.70;99.90;;;;;;5005033;28;20235;-74
2021/04/23 00:54:19;;;;;;;5.60;1.60;;;9.70;99.90;;;;;;5001481;28;20212;-72
2021/04/23 00:56:46;;;;;;;3.73;1.63;;;9.80;99.90;;;;;;5004469;28;20224;-74
2021/04/23 00:59:14;;;;;;;3.60;1.47;;;9.90;99.90;;;;;;4988982;28;20304;-73
2021/04/23 01:01:55;;;;;;;4.57;1.57;;;9.70;99.90;;;;;;5013090;28;20895;-74
2021/04/23 01:04:22;;;;;;;6.47;1.83;;;9.80;99.90;;;;;;5000916;28;20565;-73
2021/04/23 01:06:49;;;;;;;1.97;1.17;;;9.70;99.90;;;;;;4997745;28;20197;-73
2021/04/23 01:09:23;;;;;;;2.73;1.50;;;9.60;99.90;;;;;;4985322;28;20654;-73
2021/04/23 01:11:52;;;;;;;5.50;1.60;;;9.70;99.90;;;;;;5004102;28;20221;-73
2021/04/23 01:14:20;;;;;;;4.30;1.57;;;9.70;99.90;;;;;;5001803;28;20196;-74
2021/04/23 01:16:50;;;;;;;3.23;1.50;;;9.70;99.90;;;;;;4987572;28;20199;-74
2021/04/23 01:19:22;;;;;;;6.00;1.97;;;9.70;99.90;;;;;;5008424;28;20284;-75
2021/04/23 01:21:49;;;;;;;4.67;1.80;;;9.70;99.90;;;;;;5000994;28;20220;-74
2021/04/23 01:24:18;;;;;;;4.43;1.57;;;9.70;99.90;;;;;;5002318;28;20181;-74
2021/04/23 01:26:52;;;;;;;8.77;2.03;;;9.60;99.90;;;;;;5005535;28;20184;-73
2021/04/23 01:29:20;;;;;;;8.60;2.07;;;9.50;99.90;;;;;;5006516;28;20339;-73
2021/04/23 01:31:54;;;;;;;3.87;1.80;;;9.50;99.90;;;;;;5014061;28;20275;-73
2021/04/23 01:34:36;;;;;;;4.37;1.93;;;9.60;99.90;;;;;;5002408;28;20987;-73
2021/04/23 01:37:05;;;;;;;5.37;1.73;;;9.70;99.90;;;;;;5021200;28;20212;-74
2021/04/23 01:39:35;;;;;;;6.07;1.90;;;9.80;99.90;;;;;;5003951;28;20200;-74
2021/04/23 01:42:02;;;;;;;9.03;2.10;;;9.80;99.90;;;;;;5003561;28;20204;-73
2021/04/23 01:44:31;;;;;;;6.87;2.37;;;9.70;99.90;;;;;;5002252;28;20196;-73
2021/04/23 01:46:58;;;;;;;3.83;1.80;;;9.50;99.90;;;;;;5005465;28;20188;-74
2021/04/23 01:49:25;;;;;;;8.50;2.07;;;9.60;99.90;;;;;;5004781;28;20275;-74
2021/04/23 01:52:05;;;;;;;5.73;2.17;;;9.70;99.90;;;;;;5006001;28;20192;-73
2021/04/23 01:54:32;;;;;;;8.53;1.87;;;9.60;99.90;;;;;;5000027;28;20279;-74
2021/04/23 01:57:00;;;;;;;3.17;1.50;;;9.50;99.90;;;;;;5006588;28;20286;-73
2021/04/23 01:59:28;;;;;;;5.10;1.87;;;9.60;99.90;;;;;;4988386;28;20217;-71
2021/04/23 02:01:54;;;;;;;6.30;1.80;;;9.50;99.90;;;;;;5004129;28;20228;-73
2021/04/23 02:04:21;;;;;;;5.37;1.90;;;9.70;99.90;;;;;;5002531;28;20192;-74
2021/04/23 02:06:50;;;;;;;5.40;1.73;;;9.80;99.90;;;;;;5004264;28;20189;-74
2021/04/23 02:09:17;;;;;;;5.47;1.80;;;9.80;99.90;;;;;;5005963;28;20195;-73
2021/04/23 02:11:47;;;;;;;7.43;1.97;;;9.60;99.90;;;;;;5005345;28;20243;-73
2021/04/23 02:14:15;;;;;;;5.73;1.77;;;9.70;99.90;;;;;;4986507;28;20197;-74
2021/04/23 02:16:43;;;;;;;6.87;1.83;;;9.80;99.90;;;;;;5003915;28;20216;-74
2021/04/23 02:19:13;;;;;;;3.47;1.70;;;9.80;99.90;;;;;;5005071;28;20209;-74
2021/04/23 02:21:43;;;;;;;4.63;1.60;;;9.80;99.90;;;;;;5007255;28;20216;-73
2021/04/23 02:24:11;;;;;;;6.07;1.67;;;9.60;99.90;;;;;;5003882;28;20246;-72
2021/04/23 02:26:38;;;;;;;6.47;1.80;;;9.60;99.90;;;;;;5023339;28;20184;-73
2021/04/23 02:29:11;;;;;;;4.33;1.90;;;9.60;99.90;;;;;;4980636;28;20274;-73
2021/04/23 02:31:40;;;;;;;6.27;2.00;;;9.60;99.90;;;;;;5005977;28;20197;-74
2021/04/23 02:34:12;;;;;;;4.17;1.77;;;9.60;99.90;;;;;;5000248;28;20219;-73
2021/04/23 02:36:41;;;;;;;3.63;1.90;;;9.60;99.90;;;;;;5018961;28;20193;-74
2021/04/23 02:39:10;;;;;;;5.70;1.77;;;9.40;99.90;;;;;;5021564;28;20338;-74
2021/04/23 02:41:38;;;;;;;4.40;1.73;;;9.30;99.90;;;;;;5005167;28;20705;-73
2021/04/23 02:44:06;;;;;;;2.80;1.40;;;9.40;99.90;;;;;;4990701;28;20185;-73
2021/04/23 02:46:35;;;;;;;5.27;1.90;;;9.40;99.90;;;;;;4985510;28;20181;-70
2021/04/23 02:49:04;;;;;;;5.80;2.00;;;9.40;99.90;;;;;;5015294;28;20193;-73
2021/04/23 02:51:36;;;;;;;7.10;2.00;;;9.60;99.90;;;;;;4999998;28;20579;-73
2021/04/23 02:54:04;;;;;;;7.60;2.17;;;9.60;99.90;;;;;;5002165;28;20197;-73
2021/04/23 02:56:33;;;;;;;5.47;1.90;;;9.40;99.90;;;;;;5015873;28;20192;-70
2021/04/23 02:59:01;;;;;;;13.93;2.07;;;9.30;99.90;;;;;;5016209;28;20857;-70
2021/04/23 03:01:36;;;;;;;3.13;1.63;;;9.30;99.90;;;;;;4998775;28;20625;-73
2021/04/23 03:04:04;;;;;;;6.07;2.00;;;9.50;99.90;;;;;;5002370;28;20242;-70
2021/04/23 03:06:30;;;;;;;6.53;1.77;;;9.50;99.90;;;;;;5016979;28;20630;-70
2021/04/23 03:08:57;;;;;;;5.57;1.70;;;9.50;99.90;;;;;;5002754;28;20196;-72
2021/04/23 03:11:25;;;;;;;8.17;1.80;;;9.60;99.90;;;;;;5002715;28;20189;-74
2021/04/23 03:13:55;;;;;;;5.80;1.70;;;9.50;99.90;;;;;;5001085;28;20237;-71
2021/04/23 03:16:24;;;;;;;6.87;1.97;;;9.50;99.90;;;;;;4985650;28;20192;-74
2021/04/23 03:18:52;;;;;;;7.63;1.87;;;9.50;99.90;;;;;;5017143;28;20274;-74
2021/04/23 03:21:23;;;;;;;4.77;1.70;;;9.60;99.90;;;;;;4998119;28;20198;-73
2021/04/23 03:23:50;;;;;;;3.67;1.93;;;9.60;99.90;;;;;;4996582;28;20638;-73
2021/04/23 03:26:20;;;;;;;7.07;2.10;;;9.60;99.90;;;;;;4988695;28;20498;-74
2021/04/23 03:28:47;;;;;;;10.17;2.00;;;9.60;99.90;;;;;;4988031;28;20197;-73
2021/04/23 03:31:19;;;;;;;3.47;1.77;;;9.60;99.90;;;;;;4982160;28;20201;-73
2021/04/23 03:33:45;;;;;;;4.23;2.10;;;9.70;99.90;;;;;;4998234;28;20253;-73
2021/04/23 03:36:13;;;;;;;7.13;2.00;;;9.90;99.90;;;;;;5012434;28;20669;-72
2021/04/23 03:38:46;;;;;;;6.73;2.20;;;9.90;99.90;;;;;;4999150;28;20193;-71
2021/04/23 03:41:31;;;;;;;6.40;2.10;;;9.80;99.90;;;;;;4997872;28;20394;-74
2021/04/23 03:43:59;;;;;;;10.60;2.00;;;9.60;99.90;;;;;;5001075;28;20569;-72
2021/04/23 03:46:26;;;;;;;10.03;2.07;;;9.60;99.90;;;;;;5003502;28;20242;-73
2021/04/23 03:48:54;;;;;;;4.80;1.53;;;9.70;99.90;;;;;;5003628;28;20200;-73
2021/04/23 03:51:22;;;;;;;4.30;1.90;;;9.80;99.90;;;;;;4985568;28;20185;-74
2021/04/23 03:53:49;;;;;;;5.00;2.10;;;9.90;99.90;;;;;;5006310;28;20200;-71
2021/04/23 03:56:17;;;;;;;3.20;1.93;;;9.80;99.90;;;;;;5006123;28;20197;-72
2021/04/23 03:58:44;;;;;;;9.57;1.90;;;9.90;99.90;;;;;;5006474;28;20225;-73
2021/04/23 04:01:16;;;;;;;9.27;1.93;;;10.00;99.90;;;;;;4999677;28;20198;-74
2021/04/23 04:03:46;;;;;;;9.40;2.13;;;10.10;99.90;;;;;;4999748;28;20182;-74
2021/04/23 04:06:12;;;;;;;6.90;2.43;;;10.20;99.90;;;;;;5003752;28;20630;-74
2021/04/23 04:08:40;;;;;;;6.33;2.10;;;10.10;99.90;;;;;;5003502;28;20662;-75
2021/04/23 04:11:07;;;;;;;4.40;1.80;;;10.10;99.90;;;;;;5014597;28;20211;-72
2021/04/23 04:13:35;;;;;;;4.60;2.00;;;10.00;99.90;;;;;;4986556;28;20282;-73
2021/04/23 04:16:03;;;;;;;2.63;1.70;;;10.00;99.90;;;;;;4996965;28;20189;-72
2021/04/23 04:18:30;;;;;;;5.57;2.17;;;10.00;99.90;;;;;;4986923;28;20204;-73
2021/04/23 04:20:57;;;;;;;6.17;1.97;;;9.90;99.90;;;;;;4998536;28;20616;-73
2021/04/23 04:23:24;;;;;;;9.03;2.10;;;9.80;99.90;;;;;;5021162;28;20185;-74
2021/04/23 04:25:57;;;;;;;7.07;2.10;;;9.80;99.90;;;;;;5004609;28;20219;-71
2021/04/23 04:28:25;;;;;;;4.00;1.90;;;9.90;99.90;;;;;;4989067;28;20197;-71
2021/04/23 04:30:54;;;;;;;3.70;2.00;;;10.00;99.90;;;;;;5000587;28;20260;-73
2021/04/23 04:33:21;;;;;;;7.97;2.00;;;10.10;99.90;;;;;;5004202;28;20195;-73
2021/04/23 04:35:47;;;;;;;7.47;2.17;;;10.10;99.90;;;;;;4992177;28;20189;-73
2021/04/23 04:38:15;;;;;;;5.10;2.23;;;10.20;99.90;;;;;;4988472;28;20223;-75
2021/04/23 04:40:46;;;;;;;4.33;2.00;;;10.30;99.90;;;;;;5001647;28;20220;-74
2021/04/23 04:43:15;;;;;;;4.97;2.00;;;10.50;99.90;;;;;;4986365;28;20189;-73
2021/04/23 04:45:43;;;;;;;4.83;2.20;;;10.70;99.90;;;;;;5003652;28;20219;-73
2021/04/23 04:48:11;;;;;;;7.93;2.10;;;10.90;99.90;;;;;;5005808;28;20199;-74
2021/04/23 04:50:46;;;;;;;7.40;1.83;;;11.10;99.90;;;;;;5000824;28;20271;-73
2021/04/23 04:53:13;;;;;;;6.17;2.00;;;11.30;99.90;;;;;;5013962;28;20203;-73
2021/04/23 04:55:44;;;;;;;6.23;2.17;;;11.50;99.90;;;;;;5003776;28;20195;-73
2021/04/23 04:58:15;;;;;;;4.10;1.87;;;11.60;99.90;;;;;;4989745;28;20193;-75
2021/04/23 05:00:42;;;;;;;3.40;1.83;;;11.60;99.90;;;;;;5010736;28;20217;-72
2021/04/23 05:03:10;;;;;;;4.20;1.90;;;11.80;99.90;;;;;;5003289;28;20196;-73
2021/04/23 05:05:39;;;;;;;3.77;1.80;;;12.00;99.90;;;;;;5018693;28;20197;-70
2021/04/23 05:08:07;;;;;;;2.40;1.80;;;12.10;99.90;;;;;;5003593;28;20192;-73
2021/04/23 05:10:34;;;;;;;4.73;2.00;;;12.10;99.90;;;;;;5006160;28;20192;-71
2021/04/23 05:13:03;;;;;;;3.57;1.63;;;12.20;99.90;;;;;;5005968;28;20264;-71
2021/04/23 05:15:29;;;;;;;5.67;1.90;;;12.40;99.90;;;;;;5003446;28;20231;-71
2021/04/23 05:17:56;;;;;;;4.77;1.77;;;12.50;99.90;;;;;;4992886;28;20529;-70
2021/04/23 05:20:24;;;;;;;6.77;2.37;;;12.60;99.90;;;;;;5007930;28;20247;-70
2021/04/23 05:22:50;;;;;;;5.37;1.60;;;12.70;99.90;;;;;;4990845;28;20196;-71
2021/04/23 05:25:21;;;;;;;4.47;1.70;;;12.90;99.90;;;;;;4995096;28;20188;-71
2021/04/23 05:27:49;;;;;;;5.13;2.40;;;13.00;99.90;;;;;;5002490;28;20196;-71
2021/04/23 05:30:21;;;;;;;4.23;1.80;;;13.10;99.90;;;;;;5002675;28;20661;-71
2021/04/23 05:32:48;;;;;;;5.93;2.10;;;13.20;99.90;;;;;;4990497;28;20347;-70
2021/04/23 05:35:18;;;;;;;7.00;2.33;;;13.20;99.90;;;;;;4999269;28;20611;-71
2021/04/23 05:37:45;;;;;;;6.90;1.90;;;13.40;99.90;;;;;;5005298;28;20205;-71
2021/04/23 05:40:17;;;;;;;6.03;1.80;;;13.60;99.90;;;;;;5005345;28;20220;-70
2021/04/23 05:42:44;;;;;;;8.27;2.00;;;14.10;99.90;;;;;;4999401;28;20656;-71
2021/04/23 05:45:13;;;;;;;7.00;1.90;;;14.00;99.90;;;;;;5003787;28;20429;-74
2021/04/23 05:47:40;;;;;;;5.23;1.60;;;13.90;99.90;;;;;;4991183;28;20185;-73
2021/04/23 05:50:11;;;;;;;9.30;1.60;;;13.90;99.90;;;;;;5005506;28;20665;-73
2021/04/23 05:52:38;;;;;;;6.27;2.00;;;14.10;99.90;;;;;;4991922;28;20814;-75
2021/04/23 05:55:12;;;;;;;3.93;1.60;;;14.10;99.90;;;;;;4992017;28;20216;-73
2021/04/23 05:57:39;;;;;;;5.57;1.90;;;14.40;99.90;;;;;;5003611;28;20193;-74
2021/04/23 06:00:10;;;;;;;8.03;1.97;;;14.40;99.90;;;;;;5000629;28;20259;-73
2021/04/23 06:02:37;;;;;;;7.60;1.80;;;14.50;99.90;;;;;;4985406;28;20189;-74
2021/04/23 06:05:05;;;;;;;8.47;1.90;;;14.40;99.90;;;;;;5019703;28;20196;-73
2021/04/23 06:07:32;;;;;;;7.17;1.90;;;14.60;99.90;;;;;;5003813;28;20196;-74
2021/04/23 06:09:58;;;;;;;7.43;2.13;;;15.00;99.90;;;;;;5003151;28;20965;-74
2021/04/23 06:12:24;;;;;;;5.57;1.90;;;15.20;99.90;;;;;;5018382;28;20192;-74
2021/04/23 06:14:51;;;;;;;4.00;1.60;;;15.20;99.90;;;;;;4987014;28;20654;-74
2021/04/23 06:17:17;;;;;;;7.17;2.70;;;15.20;99.90;;;;;;4988493;28;20247;-74
2021/04/23 06:19:43;;;;;;;5.43;2.17;;;15.20;99.90;;;;;;5003704;28;20217;-75
2021/04/23 06:22:10;;;;;;;6.20;2.10;;;15.20;99.90;;;;;;5007693;28;20260;-74
2021/04/23 06:24:37;;;;;;;7.90;2.00;;;15.20;99.90;;;;;;5006727;28;20197;-73
2021/04/23 06:27:04;;;;;;;6.13;1.80;;;15.30;99.90;;;;;;5021956;28;20668;-73
2021/04/23 06:29:32;;;;;;;6.60;2.00;;;15.50;99.90;;;;;;5014442;28;20240;-73
2021/04/23 06:31:59;;;;;;;3.67;1.67;;;15.80;99.90;;;;;;4985557;28;20235;-73
2021/04/23 06:34:37;;;;;;;8.57;1.97;;;15.90;99.90;;;;;;4991541;28;20527;-74
2021/04/23 06:37:03;;;;;;;4.80;2.00;;;16.00;99.90;;;;;;4997482;28;20197;-73
2021/04/23 06:39:31;;;;;;;5.80;1.97;;;16.00;99.90;;;;;;5002112;28;20205;-74
2021/04/23 06:41:57;;;;;;;15.77;2.00;;;16.00;99.90;;;;;;5017571;28;20650;-74
2021/04/23 06:44:24;;;;;;;10.30;2.00;;;16.20;99.90;;;;;;4999633;28;20224;-74
2021/04/23 06:46:50;;;;;;;5.10;1.63;;;16.30;99.90;;;;;;4986031;28;20188;-74
2021/04/23 06:49:18;;;;;;;8.00;2.40;;;16.50;99.90;;;;;;5005265;28;20683;-73
2021/04/23 06:51:45;;;;;;;5.00;2.40;;;16.80;99.90;;;;;;4990178;28;20703;-73
2021/04/23 06:54:12;;;;;;;2.60;1.70;;;16.80;99.90;;;;;;5005643;28;20220;-74
2021/04/23 06:56:39;;;;;;;4.97;2.10;;;16.70;99.90;;;;;;5001882;28;20204;-71
2021/04/23 06:59:05;;;;;;;3.60;1.80;;;16.80;99.90;;;;;;4999951;28;20566;-72
2021/04/23 07:01:32;;;;;;;6.57;2.17;;;16.80;99.90;;;;;;5000462;28;20195;-71
2021/04/23 07:04:36;;;;;;;4.73;2.00;;;17.20;99.90;;;;;;4993054;28;20212;-73
2021/04/23 07:07:02;;;;;;;9.23;2.23;;;17.50;99.90;;;;;;5013092;28;20221;-75
2021/04/23 07:09:29;;;;;;;12.30;3.17;;;17.40;99.90;;;;;;4982875;28;20189;-72
2021/04/23 07:11:57;;;;;;;10.30;2.60;;;17.60;99.90;;;;;;4999907;28;20197;-74
2021/04/23 07:14:25;;;;;;;7.30;1.97;;;17.70;99.90;;;;;;4997345;28;20193;-73
2021/04/23 07:16:52;;;;;;;7.63;2.40;;;17.80;99.90;;;;;;5001666;28;20652;-72
2021/04/23 07:19:19;;;;;;;7.53;3.00;;;17.80;99.90;;;;;;5005643;28;20320;-75
2021/04/23 07:21:45;;;;;;;6.60;2.50;;;18.00;99.90;;;;;;4982652;28;20224;-73
2021/04/23 07:24:13;;;;;;;9.90;2.30;;;18.00;99.90;;;;;;4988789;28;20703;-75
2021/04/23 07:26:40;;;;;;;6.70;2.50;;;18.10;99.90;;;;;;5001176;28;20653;-72
2021/04/23 07:29:06;;;;;;;7.60;2.50;;;18.10;99.90;;;;;;5000889;28;20200;-73
2021/04/23 07:31:32;;;;;;;10.03;2.60;;;18.20;99.90;;;;;;4981948;28;20292;-73
2021/04/23 07:34:00;;;;;;;5.53;2.40;;;18.30;99.90;;;;;;5001554;28;20212;-73
2021/04/23 07:36:27;;;;;;;6.23;2.27;;;18.40;99.90;;;;;;5015960;28;20184;-70
2021/04/23 07:38:54;;;;;;;6.27;2.33;;;18.50;99.90;;;;;;4997032;28;20184;-71
2021/04/23 07:41:21;;;;;;;6.27;2.40;;;18.60;99.90;;;;;;5003752;28;20197;-72
2021/04/23 07:43:47;;;;;;;8.13;2.80;;;18.50;99.90;;;;;;4986464;28;20192;-71
2021/04/23 07:46:15;;;;;;;10.37;3.03;;;18.70;99.90;;;;;;5001168;28;20227;-73
2021/04/23 07:48:42;;;;;;;8.53;2.23;;;18.90;99.90;;;;;;5020346;28;20192;-73
2021/04/23 07:51:08;;;;;;;7.40;2.40;;;18.80;99.90;;;;;;5006072;28;20338;-71
2021/04/23 07:53:35;;;;;;;9.73;2.10;;;18.90;99.90;;;;;;5002704;28;20237;-72
2021/04/23 07:56:02;;;;;;;7.47;2.53;;;18.90;99.90;;;;;;5004174;28;20700;-72
2021/04/23 07:58:28;;;;;;;10.93;2.53;;;18.90;99.90;;;;;;5010699;28;20228;-70
2021/04/23 08:00:54;;;;;;;13.73;2.67;;;18.90;99.90;;;;;;4988183;28;20292;-73
2021/04/23 08:03:22;;;;;;;12.80;2.67;;;18.90;99.90;;;;;;5000897;28;20301;-71
2021/04/23 08:05:49;;;;;;;9.20;2.43;;;19.10;99.90;;;;;;4998945;28;20217;-70
2021/04/23 08:08:16;;;;;;;8.50;2.50;;;19.30;99.90;;;;;;4995582;28;20224;-71
2021/04/23 08:10:42;;;;;;;9.60;2.30;;;19.30;99.90;;;;;;4999919;28;20204;-69
2021/04/23 08:13:10;;;;;;;9.43;2.50;;;19.30;99.90;;;;;;4998084;28;20503;-72
2021/04/23 08:15:37;;;;;;;9.90;2.40;;;19.30;99.90;;;;;;4994854;28;20554;-71
2021/04/23 08:18:04;;;;;;;6.60;2.10;;;19.40;99.90;;;;;;4981264;28;20247;-71
2021/04/23 08:20:34;;;;;;;6.73;2.00;;;19.50;99.90;;;;;;5003675;28;20225;-70
2021/04/23 08:23:01;;;;;;;15.77;2.93;;;19.60;99.90;;;;;;5001372;28;20283;-72
2021/04/23 08:25:28;;;;;;;13.40;2.70;;;19.70;99.90;;;;;;4992870;28;20276;-69
2021/04/23 08:27:54;;;;;;;13.87;2.80;;;19.70;99.90;;;;;;4980335;28;20208;-72
2021/04/23 08:30:27;;;;;;;7.10;2.43;;;19.80;99.90;;;;;;5011471;28;20200;-74
2021/04/23 08:32:57;;;;;;;8.63;2.30;;;19.80;99.90;;;;;;5000349;28;20201;-74
2021/04/23 08:35:25;;;;;;;18.70;2.80;;;19.80;99.90;;;;;;5000362;28;20231;-73
2021/04/23 08:37:53;;;;;;;8.10;2.63;;;19.80;99.90;;;;;;5001986;28;20211;-74
2021/04/23 08:40:21;;;;;;;10.87;2.97;;;19.90;99.90;;;;;;4986574;28;20213;-69
2021/04/23 08:42:48;;;;;;;10.33;2.40;;;20.20;99.90;;;;;;4996637;28;20192;-74
2021/04/23 08:45:19;;;;;;;10.13;2.57;;;20.20;99.90;;;;;;4987463;28;20826;-73
2021/04/23 08:47:48;;;;;;;6.70;2.10;;;20.20;99.90;;;;;;4997102;28;20185;-74
2021/04/23 08:50:17;;;;;;;10.33;2.60;;;20.10;99.90;;;;;;5004718;28;20550;-72
2021/04/23 08:52:47;;;;;;;8.43;2.00;;;20.10;99.90;;;;;;5017705;28;20619;-72
2021/04/23 08:55:19;;;;;;;8.17;2.80;;;20.20;99.90;;;;;;5003940;28;20275;-73
2021/04/23 08:57:45;;;;;;;10.13;2.40;;;20.20;99.90;;;;;;4998274;28;20204;-71
2021/04/23 09:00:15;;;;;;;12.67;2.80;;;20.20;99.90;;;;;;5003320;28;20220;-72
2021/04/23 09:02:42;;;;;;;11.80;3.03;;;20.40;99.90;;;;;;4998330;28;20197;-74
2021/04/23 09:05:09;;;;;;;8.27;2.97;;;20.60;99.90;;;;;;4983470;28;20212;-74
2021/04/23 09:07:36;;;;;;;10.47;2.80;;;20.80;99.90;;;;;;5001966;28;20204;-77
2021/04/23 09:10:12;;;;;;;9.87;2.60;;;20.80;99.90;;;;;;4998753;28;20277;-72
2021/04/23 09:12:40;;;;;;;14.00;2.60;;;20.80;99.90;;;;;;5001485;28;20192;-73
2021/04/23 09:15:27;;;;;;;10.10;2.67;;;20.90;99.90;;;;;;4985062;28;20674;-73
2021/04/23 09:18:17;;;;;;;9.97;2.57;;;20.90;99.90;;;;;;5000602;28;20193;-72
2021/04/23 09:20:59;;;;;;;9.50;2.73;;;21.10;99.90;;;;;;4997618;28;20275;-72
2021/04/23 09:23:26;;;;;;;8.23;2.53;;;21.30;99.90;;;;;;4997139;28;20649;-74
2021/04/23 09:25:56;;;;;;;7.77;2.97;;;21.40;99.90;;;;;;5000559;28;20193;-72
2021/04/23 09:28:42;;;;;;;12.57;3.10;;;21.50;99.90;;;;;;5000744;28;21161;-77
2021/04/23 09:31:30;;;;;;;13.40;3.00;;;21.40;99.90;;;;;;5002416;28;20527;-74
2021/04/23 09:34:04;;;;;;;8.83;2.60;;;21.50;99.90;;;;;;4984114;28;20423;-73
2021/04/23 09:36:45;;;;;;;10.57;2.60;;;21.70;99.90;;;;;;5013443;28;20224;-72
2021/04/23 09:39:16;;;;;;;9.60;2.93;;;21.90;99.90;;;;;;5000561;28;20201;-72
2021/04/23 09:41:56;;;;;;;8.80;3.00;;;22.00;99.90;;;;;;4984347;28;20187;-73
2021/04/23 09:44:47;;;;;;;10.70;3.07;;;22.10;99.90;;;;;;5000893;28;20269;-73
2021/04/23 09:47:24;;;;;;;8.67;2.67;;;22.20;99.90;;;;;;4995882;28;20180;-72
2021/04/23 09:50:00;;;;;;;10.90;2.87;;;22.30;99.90;;;;;;5000934;28;20263;-72
2021/04/23 09:52:28;;;;;;;11.83;3.13;;;22.40;99.90;;;;;;5016109;28;20227;-73
2021/04/23 09:55:04;;;;;;;10.63;3.00;;;22.10;99.90;;;;;;5003100;28;20189;-72
2021/04/23 09:57:36;;;;;;;8.53;2.43;;;22.20;99.90;;;;;;5009979;28;20698;-73
2021/04/23 10:00:07;;;;;;;11.37;3.20;;;22.20;99.90;;;;;;5012704;28;20280;-70
2021/04/23 10:02:35;;;;;;;8.87;2.67;;;22.30;99.90;;;;;;5001185;28;20222;-74
2021/04/23 10:05:03;;;;;;;8.43;2.90;;;22.60;99.90;;;;;;5003707;28;20280;-73
2021/04/23 10:07:32;;;;;;;8.20;2.50;;;22.60;99.90;;;;;;4984027;28;20193;-72
2021/04/23 10:10:13;;;;;;;9.80;2.80;;;22.70;99.90;;;;;;4997992;28;20276;-74
2021/04/23 10:12:47;;;;;;;9.47;2.87;;;23.10;99.90;;;;;;5001123;28;20279;-72
2021/04/23 10:15:28;;;;;;;9.47;3.07;;;23.20;99.90;;;;;;5003687;28;20189;-71
2021/04/23 10:18:06;;;;;;;9.57;3.03;;;23.20;99.90;;;;;;5000994;28;20535;-71
2021/04/23 10:20:42;;;;;;;11.23;3.00;;;23.20;99.90;;;;;;5003878;28;20227;-72
2021/04/23 10:23:12;;;;;;;11.40;3.40;;;23.60;99.90;;;;;;4997788;28;20193;-71
2021/04/23 10:25:38;;;;;;;11.02;3.03;;;24.10;99.90;;;;;;5018404;28;20529;-71
2021/04/23 10:28:09;;;;;;;11.05;2.85;;;24.10;99.90;;;;;;4997870;28;20200;-71
2021/04/23 10:30:45;;;;;;;9.68;2.85;;;24.20;99.90;;;;;;5001078;28;20201;-72
2021/04/23 10:33:19;;;;;;;12.32;3.10;;;24.30;99.90;;;;;;5013510;28;20200;-71
2021/04/23 10:35:53;;;;;;;9.10;2.65;;;24.40;99.90;;;;;;5015789;28;20200;-71
2021/04/23 10:38:25;;;;;;;9.52;3.20;;;24.30;99.90;;;;;;4999896;28;20246;-73
2021/04/23 10:40:58;;;;;;;11.40;3.40;;;24.30;99.90;;;;;;4998652;28;20221;-70
2021/04/23 10:43:26;;;;;;;10.83;2.93;;;24.20;99.90;;;;;;4996843;28;20578;-72
2021/04/23 10:46:12;;;;;;;9.73;2.73;;;24.10;99.90;;;;;;5000454;28;20545;-71
2021/04/23 10:48:47;;;;;;;7.60;2.80;;;24.10;99.90;;;;;;5000136;28;20197;-71
2021/04/23 10:52:06;;;;;;;11.23;2.47;;;23.80;99.90;;;;;;5000696;28;20273;-72
2021/04/23 10:54:33;;;;;;;8.37;2.70;;;23.60;99.90;;;;;;4998966;28;20204;-72
2021/04/23 10:57:04;;;;;;;8.47;2.73;;;23.60;99.90;;;;;;5017519;28;20198;-70
2021/04/23 10:59:35;;;;;;;9.17;2.60;;;23.60;99.90;;;;;;5012185;28;20213;-70
2021/04/23 11:02:19;;;;;;;10.13;2.53;;;23.50;99.90;;;;;;5017646;28;20233;-70
2021/04/23 11:05:00;;;;;;;11.83;3.27;;;23.50;99.90;;;;;;5003214;28;20197;-70
2021/04/23 11:07:29;;;;;;;8.17;2.43;;;23.50;99.90;;;;;;5000049;28;20196;-70
2021/04/23 11:10:09;;;;;;;11.90;2.70;;;23.50;99.90;;;;;;4984102;28;20192;-70
2021/04/23 11:12:36;;;;;;;6.47;2.33;;;23.30;99.90;;;;;;4987203;28;20503;-70
2021/04/23 11:16:06;;;;;;;11.50;2.70;;;23.20;99.90;;;;;;4997610;28;20272;-71
2021/04/23 11:18:32;;;;;;;8.27;2.47;;;23.00;99.90;;;;;;5001824;28;20197;-70
2021/04/23 11:21:31;;;;;;;7.33;2.70;;;23.00;99.90;;;;;;5001343;28;20335;-70
2021/04/23 11:24:26;;;;;;;15.73;3.27;;;22.90;99.90;;;;;;4999263;28;20554;-70
2021/04/23 11:29:24;;;;;;;10.43;2.83;;;23.10;99.90;;;;;;5000304;28;20196;-70
2021/04/23 11:32:31;;;;;;;10.80;3.23;;;23.20;99.90;;;;;;4998416;28;20989;-71
2021/04/23 11:35:10;;;;;;;10.50;3.00;;;23.00;99.90;;;;;;4998524;28;20661;-70
2021/04/23 11:37:43;;;;;;;8.27;2.37;;;23.30;99.90;;;;;;4999560;28;20201;-71
2021/04/23 11:40:29;;;;;;;11.70;3.27;;;23.20;99.90;;;;;;4993214;28;20696;-71
2021/04/23 11:42:58;;;;;;;12.17;2.77;;;23.40;99.90;;;;;;5016242;28;20275;-72
2021/04/23 11:45:35;;;;;;;8.57;2.90;;;23.50;99.90;;;;;;5017705;28;20727;-71
2021/04/23 11:48:20;;;;;;;7.20;2.47;;;23.30;99.90;;;;;;5001477;28;20192;-71
2021/04/23 11:50:46;;;;;;;11.57;2.80;;;23.30;99.90;;;;;;5012407;28;20740;-71
2021/04/23 11:53:18;;;;;;;10.73;3.03;;;23.30;99.90;;;;;;4979311;28;20203;-72
2021/04/23 11:55:57;;;;;;;9.47;2.67;;;23.30;99.90;;;;;;5000037;28;20233;-69
2021/04/23 11:58:27;;;;;;;10.00;3.23;;;23.30;99.90;;;;;;4998911;28;20205;-70
2021/04/23 12:01:00;;;;;;;8.60;3.10;;;23.00;99.90;;;;;;5000970;28;20255;-74
2021/04/23 12:03:27;;;;;;;13.03;3.40;;;23.00;99.90;;;;;;5001537;28;20200;-70
2021/04/23 12:05:56;;;;;;;13.40;3.00;;;22.90;99.90;;;;;;4996962;28;21159;-71
2021/04/23 12:08:31;;;;;;;12.27;3.30;;;22.80;99.90;;;;;;4995282;28;20186;-73
2021/04/23 12:11:05;;;;;;;17.87;3.53;;;22.70;99.90;;;;;;4996912;28;20197;-73
2021/04/23 12:13:38;;;;;;;16.00;3.47;;;22.80;99.90;;;;;;4998396;28;20533;-73
2021/04/23 12:16:19;;;;;;;10.23;2.80;;;22.90;99.90;;;;;;5000245;28;20201;-73
2021/04/23 12:18:51;;;;;;;10.03;3.10;;;22.90;99.90;;;;;;4992293;28;20208;-73
2021/04/23 12:21:19;;;;;;;10.67;3.10;;;22.80;99.90;;;;;;4999081;28;20316;-72
2021/04/23 12:23:46;;;;;;;14.80;3.30;;;22.90;99.90;;;;;;4985575;28;20189;-73
2021/04/23 12:26:26;;;;;;;12.37;3.37;;;22.80;99.90;;;;;;4996283;28;20193;-73
2021/04/23 12:28:55;;;;;;;11.37;2.80;;;22.70;99.90;;;;;;4995508;28;20199;-72
2021/04/23 12:31:32;;;;;;;12.27;2.77;;;22.70;99.90;;;;;;4983126;28;20224;-72
2021/04/23 12:34:10;;;;;;;9.33;2.90;;;22.80;99.90;;;;;;5001149;28;20220;-73
2021/04/23 12:36:42;;;;;;;12.00;3.80;;;22.70;99.90;;;;;;5001154;28;20204;-73
2021/04/23 12:39:14;;;;;;;13.53;3.77;;;22.50;99.90;;;;;;5009340;28;20196;-72
2021/04/23 12:41:48;;;;;;;8.30;2.70;;;22.50;99.90;;;;;;4997471;28;20204;-73
2021/04/23 12:44:17;;;;;;;12.90;3.20;;;22.40;99.90;;;;;;5011596;28;20202;-73
2021/04/23 12:46:51;;;;;;;10.17;2.80;;;22.50;99.90;;;;;;4998591;28;20189;-71
2021/04/23 12:49:28;;;;;;;9.43;3.30;;;22.40;99.90;;;;;;4983104;28;20191;-72
2021/04/23 12:52:08;;;;;;;14.13;3.37;;;22.20;99.90;;;;;;4997168;28;20214;-73
2021/04/23 12:54:42;;;;;;;10.07;2.97;;;22.10;99.90;;;;;;4991260;28;20752;-72
2021/04/23 12:57:24;;;;;;;11.83;3.13;;;21.90;99.90;;;;;;4996038;28;20283;-72
2021/04/23 13:00:06;;;;;;;16.17;3.00;;;21.80;99.90;;;;;;4997690;28;20212;-72
2021/04/23 13:02:38;;;;;;;12.53;3.23;;;21.60;99.90;;;;;;5012280;28;20359;-72
2021/04/23 13:05:07;;;;;;;11.60;2.97;;;21.30;99.90;;;;;;5014082;28;20189;-72
2021/04/23 13:07:53;;;;;;;15.10;3.20;;;21.20;99.90;;;;;;4996854;28;20271;-72
2021/04/23 13:10:23;;;;;;;12.63;3.33;;;21.30;99.90;;;;;;4993677;28;20818;-72
2021/04/23 13:13:10;;;;;;;11.07;3.17;;;21.30;99.90;;;;;;4996159;28;20622;-72